Time;durP1;ratioP1;P1;durP2;ratioP2;P2;SDS_P1;SDS_P2;PMS_P1;PMS_P2;Temp;Humidity;BMP_temperature;BMP_pressure;BME280_temperature;BME280_humidity;BME280_pressure;Samples;Min_cycle;Max_cycle;Signal;HPM_P1;HPM_P2
2023/05/11 00:02:00;;;;;;;2.97;2.63;;;18.90;35.50;;;;;;6260938;23;20603;-81
2023/05/11 00:04:26;;;;;;;3.85;2.92;;;18.90;35.50;;;;;;6184744;23;20607;-79
2023/05/11 00:06:52;;;;;;;3.15;2.80;;;18.90;35.40;;;;;;6208865;23;20141;-79
2023/05/11 00:09:18;;;;;;;3.45;2.50;;;18.90;35.50;;;;;;6233542;23;20198;-79
2023/05/11 00:11:44;;;;;;;2.80;2.60;;;18.90;35.50;;;;;;6184182;23;20228;-79
2023/05/11 00:14:10;;;;;;;4.15;2.40;;;18.90;35.60;;;;;;6209007;23;20181;-80
2023/05/11 00:16:35;;;;;;;2.80;2.55;;;18.90;35.50;;;;;;6209776;23;20142;-80
2023/05/11 00:19:01;;;;;;;2.80;2.50;;;18.80;35.50;;;;;;6234373;23;20500;-79
2023/05/11 00:21:31;;;;;;;3.08;2.78;;;18.90;35.50;;;;;;6234264;23;20154;-79
2023/05/11 00:23:56;;;;;;;2.67;2.45;;;18.90;35.60;;;;;;6234359;23;20145;-79
2023/05/11 00:26:23;;;;;;;2.88;2.47;;;18.80;35.50;;;;;;6208451;23;20145;-81
2023/05/11 00:28:49;;;;;;;3.55;2.67;;;18.80;35.50;;;;;;6233845;23;20561;-80
2023/05/11 00:31:15;;;;;;;3.20;2.90;;;18.80;35.60;;;;;;6207659;23;20217;-79
2023/05/11 00:33:40;;;;;;;2.83;2.55;;;18.80;35.60;;;;;;6209391;23;20130;-81
2023/05/11 00:36:06;;;;;;;2.72;2.42;;;18.80;35.60;;;;;;6183236;23;20145;-79
2023/05/11 00:38:35;;;;;;;2.60;2.40;;;18.80;35.50;;;;;;6260341;23;20125;-79
2023/05/11 00:41:02;;;;;;;2.75;2.55;;;18.80;35.50;;;;;;6260868;23;20213;-79
2023/05/11 00:43:28;;;;;;;3.45;2.90;;;18.80;35.60;;;;;;6183948;23;20591;-80
2023/05/11 00:45:54;;;;;;;2.95;2.65;;;18.80;35.60;;;;;;6184024;23;20219;-78
2023/05/11 00:48:21;;;;;;;2.90;2.60;;;18.80;35.70;;;;;;6207642;23;20138;-81
2023/05/11 00:50:47;;;;;;;3.10;2.80;;;18.80;35.70;;;;;;6208465;23;20168;-79
2023/05/11 00:53:13;;;;;;;2.72;2.47;;;18.80;35.60;;;;;;6260893;23;20161;-79
2023/05/11 00:55:38;;;;;;;2.70;2.50;;;18.80;35.70;;;;;;6208385;23;20189;-80
2023/05/11 00:58:05;;;;;;;3.45;2.95;;;18.80;35.70;;;;;;6209321;23;20203;-79
2023/05/11 01:00:30;;;;;;;4.13;2.50;;;18.80;35.80;;;;;;6208327;23;20138;-81
2023/05/11 01:03:00;;;;;;;3.47;3.03;;;18.80;35.80;;;;;;6208084;23;20133;-80
2023/05/11 01:05:35;;;;;;;3.20;2.90;;;18.80;35.80;;;;;;6233186;23;20137;-79
2023/05/11 01:08:06;;;;;;;2.95;2.65;;;18.80;35.80;;;;;;6183751;23;20145;-80
2023/05/11 01:10:40;;;;;;;3.47;2.65;;;18.80;35.80;;;;;;6207404;23;20484;-81
2023/05/11 01:13:27;;;;;;;3.55;2.67;;;18.80;35.80;;;;;;6233971;23;20191;-81
2023/05/11 01:15:56;;;;;;;2.83;2.60;;;18.80;35.70;;;;;;6237772;23;20164;-79
2023/05/11 01:18:32;;;;;;;3.22;2.85;;;18.80;35.80;;;;;;6260044;23;20277;-79
2023/05/11 01:20:59;;;;;;;3.55;2.92;;;18.80;35.90;;;;;;6259131;23;20148;-79
2023/05/11 01:23:58;;;;;;;2.67;2.47;;;18.80;35.90;;;;;;6207964;23;20138;-79
2023/05/11 01:26:38;;;;;;;2.78;2.50;;;18.80;35.90;;;;;;6260061;23;20189;-81
2023/05/11 01:29:12;;;;;;;3.13;2.70;;;18.80;36.00;;;;;;6208662;23;20190;-80
2023/05/11 01:31:39;;;;;;;2.70;2.50;;;18.80;36.00;;;;;;6209338;23;20168;-81
2023/05/11 01:34:12;;;;;;;2.90;2.60;;;18.80;36.00;;;;;;6233073;23;20142;-79
2023/05/11 01:36:41;;;;;;;3.40;2.80;;;18.80;36.00;;;;;;6184202;23;20142;-81
2023/05/11 01:39:08;;;;;;;3.10;2.80;;;18.80;36.10;;;;;;6208928;23;20136;-80
2023/05/11 01:41:35;;;;;;;3.05;2.65;;;18.70;36.10;;;;;;6260422;23;20246;-80
2023/05/11 01:44:03;;;;;;;3.35;2.80;;;18.70;36.00;;;;;;6208475;23;20165;-79
2023/05/11 01:46:31;;;;;;;2.70;2.50;;;18.70;36.10;;;;;;6208182;23;20150;-80
2023/05/11 01:48:58;;;;;;;2.95;2.70;;;18.70;35.90;;;;;;6233137;23;20133;-79
2023/05/11 01:51:32;;;;;;;4.38;2.65;;;18.70;35.90;;;;;;6183641;23;20141;-80
2023/05/11 01:53:58;;;;;;;3.10;2.80;;;18.70;36.00;;;;;;6208400;23;20137;-79
2023/05/11 01:56:25;;;;;;;3.05;2.75;;;18.70;36.00;;;;;;6184323;23;20141;-79
2023/05/11 01:58:51;;;;;;;3.78;2.80;;;18.70;36.00;;;;;;6183787;23;20138;-81
2023/05/11 02:01:18;;;;;;;2.83;2.60;;;18.70;36.10;;;;;;6233431;23;20172;-79
2023/05/11 02:03:46;;;;;;;3.20;2.88;;;18.70;36.10;;;;;;6208931;23;20138;-79
2023/05/11 02:06:12;;;;;;;2.78;2.58;;;18.70;36.20;;;;;;6232759;23;20133;-80
2023/05/11 02:08:38;;;;;;;3.10;2.80;;;18.80;36.20;;;;;;6208131;23;20168;-79
2023/05/11 02:11:04;;;;;;;3.10;2.80;;;18.70;36.20;;;;;;6208299;23;20137;-79
2023/05/11 02:13:32;;;;;;;2.97;2.78;;;18.70;36.20;;;;;;6259195;23;20193;-79
2023/05/11 02:15:57;;;;;;;2.85;2.60;;;18.70;36.20;;;;;;6208470;23;20130;-79
2023/05/11 02:18:23;;;;;;;3.05;2.65;;;18.70;36.30;;;;;;6233672;23;20140;-80
2023/05/11 02:20:50;;;;;;;2.63;2.42;;;18.70;37.00;;;;;;6183557;23;20148;-79
2023/05/11 02:23:19;;;;;;;3.67;2.70;;;18.70;36.30;;;;;;6185430;23;20148;-81
2023/05/11 02:25:45;;;;;;;3.10;2.80;;;18.70;36.30;;;;;;6235705;23;20167;-80
2023/05/11 02:28:13;;;;;;;2.90;2.60;;;18.70;36.30;;;;;;6262135;23;20552;-78
2023/05/11 02:30:44;;;;;;;3.00;2.70;;;18.70;36.30;;;;;;6185825;23;20137;-79
2023/05/11 02:33:16;;;;;;;2.83;2.58;;;18.60;36.30;;;;;;6185603;23;20177;-80
2023/05/11 02:35:42;;;;;;;3.30;2.90;;;18.70;36.30;;;;;;6236360;23;20180;-80
2023/05/11 02:38:08;;;;;;;3.15;2.75;;;18.70;36.40;;;;;;6235304;23;20142;-80
2023/05/11 02:40:36;;;;;;;2.83;2.63;;;18.70;36.50;;;;;;6235199;23;20134;-81
2023/05/11 02:43:08;;;;;;;2.75;2.55;;;18.60;36.50;;;;;;6234899;23;20138;-79
2023/05/11 02:45:34;;;;;;;2.90;2.70;;;18.70;36.60;;;;;;6186081;23;20141;-80
2023/05/11 02:48:04;;;;;;;2.90;2.70;;;18.60;36.50;;;;;;6209830;23;20170;-80
2023/05/11 02:50:30;;;;;;;3.35;3.05;;;18.70;36.50;;;;;;6235541;23;20130;-79
2023/05/11 02:53:01;;;;;;;3.22;2.85;;;18.60;36.50;;;;;;6209550;23;20161;-80
2023/05/11 02:55:28;;;;;;;2.78;2.58;;;18.60;36.50;;;;;;6210374;23;20153;-80
2023/05/11 02:57:54;;;;;;;3.55;2.70;;;18.60;36.60;;;;;;6185160;23;20133;-79
2023/05/11 03:00:21;;;;;;;3.13;2.83;;;18.60;36.60;;;;;;6210215;23;20138;-80
2023/05/11 03:02:47;;;;;;;2.80;2.60;;;18.60;36.60;;;;;;6235204;23;20148;-79
2023/05/11 03:05:14;;;;;;;2.85;2.53;;;18.60;36.60;;;;;;6262560;23;20187;-79
2023/05/11 03:07:40;;;;;;;3.10;2.80;;;18.60;36.70;;;;;;6234507;23;20137;-79
2023/05/11 03:10:07;;;;;;;2.90;2.60;;;18.60;36.70;;;;;;6234790;23;20133;-80
2023/05/11 03:12:34;;;;;;;3.17;2.78;;;18.50;36.60;;;;;;6257936;23;20219;-81
2023/05/11 03:14:59;;;;;;;2.63;2.30;;;18.70;36.80;;;;;;6184098;23;20207;-83
2023/05/11 03:17:27;;;;;;;2.72;2.50;;;18.60;36.80;;;;;;6234945;23;20469;-81
2023/05/11 03:19:56;;;;;;;2.92;2.63;;;18.60;36.80;;;;;;6233850;23;20130;-80
2023/05/11 03:22:22;;;;;;;2.92;2.58;;;18.60;36.80;;;;;;6182498;23;20207;-80
2023/05/11 03:24:47;;;;;;;4.57;2.92;;;18.60;36.80;;;;;;6181824;23;20153;-81
2023/05/11 03:27:17;;;;;;;3.38;3.00;;;18.60;36.70;;;;;;6205456;23;20187;-81
2023/05/11 03:29:45;;;;;;;2.88;2.67;;;18.60;36.80;;;;;;6231253;23;20133;-82
2023/05/11 03:32:13;;;;;;;2.90;2.60;;;18.60;36.80;;;;;;6231271;23;20176;-80
2023/05/11 03:34:39;;;;;;;2.90;2.60;;;18.50;36.70;;;;;;6204953;23;20142;-80
2023/05/11 03:37:06;;;;;;;3.10;2.80;;;18.60;36.90;;;;;;6204106;23;20134;-80
2023/05/11 03:39:32;;;;;;;2.92;2.63;;;18.60;36.90;;;;;;6228384;23;20140;-80
2023/05/11 03:42:00;;;;;;;4.07;2.70;;;18.60;36.90;;;;;;6203491;23;20499;-82
2023/05/11 03:44:26;;;;;;;2.80;2.60;;;18.60;36.90;;;;;;6177550;23;20149;-83
2023/05/11 03:46:51;;;;;;;3.15;2.85;;;18.60;36.90;;;;;;6226434;23;20187;-80
2023/05/11 03:49:17;;;;;;;2.97;2.63;;;18.60;36.90;;;;;;6226415;23;20138;-82
2023/05/11 03:51:43;;;;;;;2.92;2.63;;;18.60;36.80;;;;;;6225375;23;20560;-80
2023/05/11 03:54:09;;;;;;;3.25;2.95;;;18.60;36.80;;;;;;6199177;23;20523;-82
2023/05/11 03:56:37;;;;;;;3.05;2.75;;;18.60;36.90;;;;;;6199246;23;20146;-80
2023/05/11 03:59:03;;;;;;;3.08;2.78;;;18.60;36.80;;;;;;6199363;23;20138;-82
2023/05/11 04:01:32;;;;;;;2.70;2.50;;;18.70;36.80;;;;;;6198321;23;20431;-83
2023/05/11 04:03:57;;;;;;;2.80;2.60;;;18.60;36.80;;;;;;6223517;23;20133;-82
2023/05/11 04:06:23;;;;;;;3.15;2.60;;;18.60;36.80;;;;;;6223365;23;20143;-84
2023/05/11 04:08:49;;;;;;;2.88;2.58;;;18.70;36.90;;;;;;6250036;23;20652;-83
2023/05/11 04:11:15;;;;;;;3.08;2.78;;;18.70;36.90;;;;;;6223096;23;20169;-81
2023/05/11 04:13:42;;;;;;;2.97;2.67;;;18.70;36.90;;;;;;6197328;23;20189;-84
2023/05/11 04:16:10;;;;;;;2.72;2.53;;;18.70;36.80;;;;;;6222443;23;20137;-82
2023/05/11 04:18:36;;;;;;;3.10;2.80;;;18.70;36.80;;;;;;6197317;23;20564;-82
2023/05/11 04:21:01;;;;;;;3.20;2.90;;;18.70;36.90;;;;;;6222562;23;20145;-83
2023/05/11 04:23:29;;;;;;;2.85;2.58;;;18.70;36.80;;;;;;6222920;23;20138;-80
2023/05/11 04:25:55;;;;;;;3.10;2.75;;;18.70;36.80;;;;;;6197132;23;20145;-82
2023/05/11 04:28:22;;;;;;;3.08;2.67;;;18.70;36.80;;;;;;6222525;23;20134;-82
2023/05/11 04:30:53;;;;;;;3.03;2.75;;;18.70;36.70;;;;;;6173302;23;20153;-82
2023/05/11 04:33:20;;;;;;;2.60;2.40;;;18.80;36.80;;;;;;6248694;23;20158;-82
2023/05/11 04:35:48;;;;;;;2.80;2.60;;;18.80;36.80;;;;;;6222187;23;20508;-82
2023/05/11 04:38:13;;;;;;;3.00;2.70;;;18.80;36.70;;;;;;6222243;23;20141;-84
2023/05/11 04:40:40;;;;;;;3.00;2.80;;;18.80;36.70;;;;;;6249306;23;20156;-83
2023/05/11 04:43:06;;;;;;;3.22;2.92;;;18.80;36.60;;;;;;6196997;23;20208;-83
2023/05/11 04:45:31;;;;;;;2.80;2.55;;;18.80;36.60;;;;;;6222001;23;20535;-80
2023/05/11 04:47:57;;;;;;;2.90;2.70;;;18.90;36.60;;;;;;6221677;23;20146;-82
2023/05/11 04:50:22;;;;;;;2.92;2.60;;;18.90;36.60;;;;;;6197201;23;20556;-83
2023/05/11 04:52:48;;;;;;;3.05;2.83;;;18.90;36.60;;;;;;6196952;23;20499;-83
2023/05/11 04:55:16;;;;;;;2.72;2.53;;;19.00;36.50;;;;;;6196949;23;20530;-81
2023/05/11 04:57:41;;;;;;;2.97;2.78;;;18.80;36.50;;;;;;6248239;23;20561;-84
2023/05/11 05:00:08;;;;;;;2.88;2.58;;;18.90;36.60;;;;;;6196318;23;20183;-83
2023/05/11 05:02:33;;;;;;;2.88;2.67;;;18.90;36.60;;;;;;6248078;23;20460;-81
2023/05/11 05:04:59;;;;;;;3.30;2.60;;;18.90;36.40;;;;;;6172477;23;20145;-83
2023/05/11 05:07:25;;;;;;;4.13;2.58;;;18.90;36.40;;;;;;6248278;23;20137;-81
2023/05/11 05:09:51;;;;;;;2.95;2.65;;;18.90;36.40;;;;;;6196629;23;20145;-79
2023/05/11 05:12:17;;;;;;;2.83;2.60;;;19.00;36.40;;;;;;6246696;23;20158;-84
2023/05/11 05:14:42;;;;;;;3.00;2.80;;;19.00;36.40;;;;;;6221739;23;20137;-80
2023/05/11 05:17:09;;;;;;;3.30;3.00;;;19.00;36.30;;;;;;6196412;23;20577;-82
2023/05/11 05:19:35;;;;;;;2.58;2.38;;;19.10;36.40;;;;;;6221198;23;20137;-82
2023/05/11 05:22:01;;;;;;;3.10;2.80;;;19.00;36.30;;;;;;6221080;23;20469;-82
2023/05/11 05:24:27;;;;;;;2.60;2.38;;;19.10;36.30;;;;;;6247988;23;20204;-84
2023/05/11 05:26:55;;;;;;;3.47;2.60;;;19.00;36.30;;;;;;6247833;23;20189;-80
2023/05/11 05:29:20;;;;;;;2.60;2.40;;;19.10;36.30;;;;;;6221625;23;20191;-82
2023/05/11 05:31:46;;;;;;;2.80;2.50;;;19.10;36.30;;;;;;6196296;23;20196;-81
2023/05/11 05:34:12;;;;;;;3.03;2.58;;;19.10;36.20;;;;;;6171623;23;20408;-82
2023/05/11 05:36:38;;;;;;;3.17;2.88;;;19.10;36.20;;;;;;6221532;23;20136;-83
2023/05/11 05:39:08;;;;;;;2.80;2.50;;;19.10;36.20;;;;;;6248283;23;20176;-80
2023/05/11 05:41:35;;;;;;;3.03;2.53;;;19.10;36.30;;;;;;6199450;23;20152;-82
2023/05/11 05:44:01;;;;;;;2.95;2.70;;;19.20;36.20;;;;;;6222466;23;20136;-81
2023/05/11 05:46:27;;;;;;;2.97;2.70;;;19.10;36.30;;;;;;6221893;23;20137;-81
2023/05/11 05:48:53;;;;;;;2.78;2.58;;;19.10;36.30;;;;;;6222277;23;20133;-82
2023/05/11 05:51:19;;;;;;;3.10;2.80;;;19.10;36.30;;;;;;6248410;23;20212;-82
2023/05/11 05:53:45;;;;;;;3.63;2.83;;;19.10;36.40;;;;;;6222892;23;20199;-80
2023/05/11 05:56:11;;;;;;;3.00;2.80;;;19.00;36.40;;;;;;6222870;23;20152;-79
2023/05/11 05:58:36;;;;;;;2.83;2.60;;;19.00;36.40;;;;;;6222623;23;20530;-84
2023/05/11 06:01:03;;;;;;;3.20;2.88;;;19.10;36.40;;;;;;6223268;23;20133;-81
2023/05/11 06:03:32;;;;;;;2.90;2.70;;;19.10;36.40;;;;;;6197409;23;20183;-82
2023/05/11 06:05:57;;;;;;;2.88;2.60;;;19.10;36.40;;;;;;6222324;23;20133;-84
2023/05/11 06:08:23;;;;;;;2.83;2.50;;;19.10;36.40;;;;;;6222643;23;20160;-82
2023/05/11 06:10:51;;;;;;;2.80;2.60;;;19.10;36.40;;;;;;6225287;23;20138;-82
2023/05/11 06:13:16;;;;;;;3.20;2.90;;;19.10;36.40;;;;;;6172422;23;20193;-83
2023/05/11 06:15:42;;;;;;;2.90;2.70;;;19.00;36.40;;;;;;6222628;23;20464;-82
2023/05/11 06:18:08;;;;;;;2.78;2.58;;;19.10;36.50;;;;;;6222580;23;20134;-82
2023/05/11 06:20:33;;;;;;;2.70;2.50;;;19.10;36.50;;;;;;6198502;23;20134;-82
2023/05/11 06:22:59;;;;;;;3.03;2.67;;;19.10;36.50;;;;;;6224087;23;20134;-82
2023/05/11 06:25:26;;;;;;;2.70;2.50;;;19.10;36.50;;;;;;6223908;23;20137;-81
2023/05/11 06:27:53;;;;;;;2.92;2.60;;;19.10;36.40;;;;;;6199852;23;20133;-84
2023/05/11 06:30:22;;;;;;;2.60;2.40;;;19.10;36.40;;;;;;6223334;23;20204;-82
2023/05/11 06:32:47;;;;;;;2.88;2.58;;;19.20;36.40;;;;;;6221415;23;20211;-83
2023/05/11 06:35:14;;;;;;;2.60;2.40;;;19.20;36.30;;;;;;6223386;23;20134;-83
2023/05/11 06:37:40;;;;;;;2.83;2.63;;;19.30;36.40;;;;;;6228205;23;20190;-83
2023/05/11 06:40:08;;;;;;;3.08;2.83;;;19.20;36.40;;;;;;6197443;23;20134;-82
2023/05/11 06:42:34;;;;;;;2.75;2.55;;;19.20;36.50;;;;;;6197530;23;20133;-80
2023/05/11 06:45:02;;;;;;;2.78;2.55;;;19.00;36.70;;;;;;6196086;23;20164;-84
2023/05/11 06:47:28;;;;;;;3.13;2.83;;;18.90;36.90;;;;;;6220776;23;20130;-83
2023/05/11 06:49:54;;;;;;;2.90;2.60;;;18.90;37.10;;;;;;6195677;23;20153;-83
2023/05/11 06:52:21;;;;;;;2.95;2.63;;;18.90;37.30;;;;;;6247422;23;20234;-82
2023/05/11 06:54:47;;;;;;;2.60;2.40;;;18.90;37.30;;;;;;6196555;23;20133;-82
2023/05/11 06:57:16;;;;;;;2.90;2.70;;;18.80;37.30;;;;;;6220891;23;20134;-83
2023/05/11 06:59:42;;;;;;;3.20;2.70;;;18.80;37.50;;;;;;6170620;23;20150;-83
2023/05/11 07:02:11;;;;;;;2.58;2.38;;;18.80;37.50;;;;;;6220814;23;20232;-83
2023/05/11 07:04:39;;;;;;;2.55;2.35;;;18.80;37.50;;;;;;6171341;23;20157;-81
2023/05/11 07:07:04;;;;;;;3.00;2.70;;;18.80;37.60;;;;;;6220697;23;20141;-82
2023/05/11 07:09:30;;;;;;;3.17;2.67;;;18.90;37.70;;;;;;6221443;23;20137;-82
2023/05/11 07:11:56;;;;;;;2.92;2.60;;;18.80;37.70;;;;;;6195485;23;20204;-82
2023/05/11 07:14:22;;;;;;;2.60;2.40;;;18.90;37.80;;;;;;6247541;23;20264;-85
2023/05/11 07:16:51;;;;;;;2.80;2.40;;;18.80;37.90;;;;;;6220797;23;20153;-81
2023/05/11 07:19:17;;;;;;;2.80;2.53;;;18.90;37.90;;;;;;6196396;23;20155;-81
2023/05/11 07:21:43;;;;;;;2.58;2.38;;;18.80;38.00;;;;;;6195836;23;20240;-84
2023/05/11 07:24:09;;;;;;;2.50;2.30;;;18.80;38.00;;;;;;6247567;23;20134;-82
2023/05/11 07:26:35;;;;;;;2.70;2.50;;;18.80;38.20;;;;;;6249482;23;20148;-82
2023/05/11 07:29:00;;;;;;;2.70;2.50;;;18.80;38.20;;;;;;6221938;23;20142;-83
2023/05/11 07:31:28;;;;;;;2.33;2.13;;;18.80;38.30;;;;;;6248918;23;20138;-81
2023/05/11 07:33:55;;;;;;;2.70;2.50;;;18.80;38.40;;;;;;6198003;23;20130;-82
2023/05/11 07:36:22;;;;;;;2.40;2.20;;;18.80;38.60;;;;;;6221620;23;20129;-85
2023/05/11 07:38:47;;;;;;;2.55;2.35;;;18.80;38.60;;;;;;6220743;23;20205;-82
2023/05/11 07:41:14;;;;;;;2.60;2.40;;;18.80;38.60;;;;;;6195632;23;20149;-81
2023/05/11 07:43:40;;;;;;;2.60;2.40;;;18.80;38.60;;;;;;6197037;23;20164;-81
2023/05/11 07:46:06;;;;;;;2.55;2.35;;;18.80;38.70;;;;;;6196878;23;20157;-82
2023/05/11 07:48:32;;;;;;;2.53;2.33;;;18.70;38.80;;;;;;6196281;23;20188;-84
2023/05/11 07:50:59;;;;;;;2.55;2.35;;;18.80;38.90;;;;;;6196912;23;20153;-81
2023/05/11 07:53:26;;;;;;;2.50;2.30;;;18.90;38.90;;;;;;6196923;23;20157;-84
2023/05/11 07:55:53;;;;;;;2.53;2.30;;;18.90;38.90;;;;;;6221879;23;20488;-82
2023/05/11 07:58:18;;;;;;;2.70;2.50;;;18.90;38.80;;;;;;6222009;23;20125;-80
2023/05/11 08:00:44;;;;;;;2.97;2.65;;;18.90;38.80;;;;;;6221707;23;20156;-81
2023/05/11 08:03:10;;;;;;;3.53;2.45;;;18.90;38.90;;;;;;6196623;23;20153;-82
2023/05/11 08:05:36;;;;;;;2.95;2.30;;;18.90;39.00;;;;;;6250439;23;20466;-83
2023/05/11 08:08:03;;;;;;;2.63;2.42;;;19.00;38.90;;;;;;6250515;23;20130;-81
2023/05/11 08:10:30;;;;;;;2.53;2.30;;;19.00;39.00;;;;;;6198497;23;20134;-83
2023/05/11 08:12:57;;;;;;;2.38;2.17;;;19.00;39.00;;;;;;6248777;23;20197;-83
2023/05/11 08:15:23;;;;;;;2.92;2.20;;;19.00;39.00;;;;;;6197398;23;20150;-80
2023/05/11 08:17:48;;;;;;;3.55;2.50;;;19.10;39.00;;;;;;6198323;23;20176;-81
2023/05/11 08:20:14;;;;;;;3.25;2.40;;;19.00;39.00;;;;;;6197797;23;20201;-84
2023/05/11 08:22:40;;;;;;;2.70;2.28;;;19.10;38.90;;;;;;6248404;23;20141;-81
2023/05/11 08:25:06;;;;;;;2.40;2.20;;;19.00;38.90;;;;;;6221457;23;20141;-83
2023/05/11 08:27:32;;;;;;;3.00;2.30;;;19.10;39.10;;;;;;6171211;23;20145;-84
2023/05/11 08:29:58;;;;;;;3.08;2.78;;;19.10;39.10;;;;;;6247720;23;20133;-81
2023/05/11 08:32:24;;;;;;;2.60;2.40;;;19.10;39.10;;;;;;6221212;23;20165;-84
2023/05/11 08:34:51;;;;;;;4.55;2.40;;;19.10;39.20;;;;;;6249213;23;20126;-82
2023/05/11 08:37:18;;;;;;;2.72;2.40;;;19.10;39.10;;;;;;6223101;23;20153;-81
2023/05/11 08:39:44;;;;;;;2.60;2.35;;;19.20;39.20;;;;;;6198046;23;20189;-83
2023/05/11 08:42:12;;;;;;;2.67;2.35;;;19.20;39.20;;;;;;6248343;23;20164;-84
2023/05/11 08:44:39;;;;;;;5.97;2.58;;;19.20;39.30;;;;;;6221788;23;20153;-80
2023/05/11 08:47:05;;;;;;;3.20;2.50;;;19.20;39.20;;;;;;6223450;23;20149;-81
2023/05/11 08:49:31;;;;;;;3.22;2.35;;;19.30;39.20;;;;;;6250387;23;20164;-83
2023/05/11 08:51:57;;;;;;;3.70;2.40;;;19.30;39.20;;;;;;6197392;23;20180;-84
2023/05/11 08:54:22;;;;;;;4.65;2.50;;;19.40;39.30;;;;;;6195188;23;20564;-80
2023/05/11 08:56:50;;;;;;;6.53;2.85;;;19.40;39.40;;;;;;6220265;23;20436;-83
2023/05/11 08:59:16;;;;;;;7.88;2.35;;;19.40;39.40;;;;;;6196123;23;20137;-82
2023/05/11 09:01:41;;;;;;;8.27;2.60;;;19.40;39.30;;;;;;6220546;23;20153;-80
2023/05/11 09:04:08;;;;;;;13.32;3.08;;;19.40;39.20;;;;;;6195487;23;20461;-82
2023/05/11 09:06:34;;;;;;;9.20;2.70;;;19.50;39.40;;;;;;6170445;23;20152;-83
2023/05/11 09:08:59;;;;;;;12.07;2.90;;;19.40;39.40;;;;;;6220284;23;20138;-81
2023/05/11 09:11:27;;;;;;;5.25;2.60;;;19.40;39.60;;;;;;6196816;23;20213;-81
2023/05/11 09:13:52;;;;;;;4.00;2.28;;;19.40;39.50;;;;;;6221955;23;20276;-81
2023/05/11 09:16:20;;;;;;;11.73;3.00;;;19.40;39.30;;;;;;6248332;23;20139;-83
2023/05/11 09:18:47;;;;;;;7.57;2.30;;;19.50;39.40;;;;;;6248705;23;20145;-81
2023/05/11 09:21:14;;;;;;;8.57;2.33;;;19.50;39.00;;;;;;6196685;23;20156;-82
2023/05/11 09:23:41;;;;;;;13.52;2.63;;;19.50;39.20;;;;;;6222549;23;20196;-81
2023/05/11 09:26:16;;;;;;;8.00;2.50;;;19.50;39.20;;;;;;6223034;23;20138;-80
2023/05/11 09:28:52;;;;;;;7.57;2.53;;;19.50;39.10;;;;;;6174892;23;20153;-81
2023/05/11 09:31:45;;;;;;;3.80;2.30;;;19.50;39.10;;;;;;6174698;23;20152;-81
2023/05/11 09:34:20;;;;;;;7.65;2.60;;;19.50;39.10;;;;;;6226037;23;20145;-80
2023/05/11 09:36:47;;;;;;;6.50;2.97;;;19.50;39.10;;;;;;6203738;23;20159;-81
2023/05/11 09:39:14;;;;;;;9.63;2.70;;;19.50;39.00;;;;;;6198735;23;20133;-80
2023/05/11 09:41:39;;;;;;;4.47;2.63;;;19.50;39.00;;;;;;6198747;23;20157;-84
2023/05/11 09:44:10;;;;;;;4.75;2.20;;;19.50;38.80;;;;;;6227399;23;20161;-82
2023/05/11 09:46:37;;;;;;;7.47;2.50;;;19.50;38.70;;;;;;6177108;23;20175;-83
2023/05/11 09:49:03;;;;;;;8.48;2.50;;;19.60;38.50;;;;;;6198113;23;20526;-82
2023/05/11 09:51:33;;;;;;;2.83;2.00;;;19.60;38.60;;;;;;6223156;23;20149;-85
2023/05/11 09:53:59;;;;;;;6.80;2.75;;;19.60;38.60;;;;;;6222404;23;20186;-82
2023/05/11 09:56:46;;;;;;;3.55;2.17;;;19.60;38.70;;;;;;6222720;23;20130;-82
2023/05/11 09:59:17;;;;;;;6.22;2.72;;;19.60;38.60;;;;;;6248308;23;20186;-81
2023/05/11 10:01:43;;;;;;;4.25;2.20;;;19.60;38.50;;;;;;6196871;23;20189;-84
2023/05/11 10:04:08;;;;;;;6.88;2.70;;;19.60;38.40;;;;;;6196161;23;20137;-81
2023/05/11 10:06:47;;;;;;;6.18;2.60;;;19.60;38.30;;;;;;6171336;23;20199;-82
2023/05/11 10:09:14;;;;;;;6.35;2.10;;;19.60;38.30;;;;;;6197419;23;20159;-82
2023/05/11 10:11:43;;;;;;;5.65;2.33;;;19.60;38.30;;;;;;6200838;23;20240;-81
2023/05/11 10:14:11;;;;;;;3.28;2.38;;;19.60;38.40;;;;;;6226571;23;20189;-82
2023/05/11 10:16:38;;;;;;;3.25;2.47;;;19.60;38.30;;;;;;6195368;23;20161;-83
2023/05/11 10:19:05;;;;;;;7.22;2.47;;;19.60;38.30;;;;;;6246774;23;20227;-84
2023/05/11 10:21:37;;;;;;;2.55;2.13;;;19.60;38.90;;;;;;6173223;23;20232;-83
2023/05/11 10:24:04;;;;;;;4.00;2.40;;;19.60;38.20;;;;;;6201726;23;20469;-81
2023/05/11 10:26:32;;;;;;;4.32;2.38;;;19.70;38.20;;;;;;6205144;23;20133;-81
2023/05/11 10:29:00;;;;;;;6.20;2.70;;;19.60;38.00;;;;;;6183811;23;20150;-82
2023/05/11 10:31:27;;;;;;;4.18;2.40;;;19.70;38.00;;;;;;6209000;23;20133;-82
2023/05/11 10:33:57;;;;;;;3.45;2.20;;;19.60;38.10;;;;;;6205696;23;20156;-83
2023/05/11 10:36:25;;;;;;;3.13;2.28;;;19.60;38.00;;;;;;6256157;23;20130;-86
2023/05/11 10:38:51;;;;;;;3.05;2.30;;;19.70;38.00;;;;;;6229657;23;20126;-83
2023/05/11 10:41:57;;;;;;;5.20;2.40;;;19.60;38.50;;;;;;6207543;23;20459;-82
2023/05/11 10:44:37;;;;;;;4.72;2.60;;;19.70;37.80;;;;;;6235314;23;20168;-82
2023/05/11 10:47:31;;;;;;;5.70;2.20;;;19.70;37.70;;;;;;6187583;23;20153;-82
2023/05/11 10:50:20;;;;;;;2.70;2.28;;;19.70;37.60;;;;;;6233835;23;20145;-86
2023/05/11 10:53:26;;;;;;;3.65;2.30;;;19.70;37.60;;;;;;6183418;23;20185;-82
2023/05/11 10:56:12;;;;;;;;;;;;;;;;;;;;;
2023/05/11 10:58:59;;;;;;;3.53;2.38;;;19.70;37.50;;;;;;6123823;23;20170;-90
2023/05/11 11:02:16;;;;;;;;;;;;;;;;;;;;;
2023/05/11 11:04:47;;;;;;;2.53;2.20;;;19.70;37.50;;;;;;6065424;23;20195;-87
2023/05/11 11:07:18;;;;;;;5.25;2.20;;;19.70;37.60;;;;;;6072654;23;20593;-85
2023/05/11 11:10:05;;;;;;;3.70;2.22;;;19.60;37.50;;;;;;6044619;23;20209;-85
2023/05/11 11:12:50;;;;;;;4.85;2.20;;;19.60;37.60;;;;;;6027638;23;20601;-87
2023/05/11 11:15:27;;;;;;;3.35;2.00;;;19.70;37.50;;;;;;6080221;23;20183;-89
2023/05/11 11:18:47;;;;;;;;;;;;;;;;;;;;;
2023/05/11 11:21:48;;;;;;;;;;;;;;;;;;;;;
2023/05/11 11:24:58;;;;;;;;;;;;;;;;;;;;;
2023/05/11 11:28:19;;;;;;;;;;;;;;;;;;;;;
2023/05/11 11:34:50;;;;;;;3.88;2.25;;;19.70;37.30;;;;;;6013184;23;20173;-87
2023/05/11 11:37:36;;;;;;;3.55;2.20;;;19.70;37.30;;;;;;5986610;24;20165;-85
2023/05/11 11:43:46;;;;;;;2.60;2.38;;;19.80;37.10;;;;;;5965956;24;20156;-85
2023/05/11 11:46:26;;;;;;;2.55;2.35;;;19.80;37.10;;;;;;5962816;24;20603;-87
2023/05/11 11:49:44;;;;;;;3.05;2.35;;;19.80;37.10;;;;;;5964677;24;20156;-86
2023/05/11 11:55:48;;;;;;;5.07;2.50;;;19.90;37.00;;;;;;5987117;23;20554;-85
2023/05/11 12:02:27;;;;;;;3.05;2.20;;;19.90;36.80;;;;;;5947536;24;20242;-86
2023/05/11 12:04:57;;;;;;;2.33;2.13;;;20.00;36.90;;;;;;5962144;24;20221;-85
2023/05/11 12:08:16;;;;;;;4.43;2.35;;;20.10;36.70;;;;;;5936642;24;20259;-82
2023/05/11 12:10:57;;;;;;;2.50;2.00;;;20.10;36.50;;;;;;5922784;24;20160;-83
2023/05/11 12:13:24;;;;;;;4.50;2.40;;;20.00;36.50;;;;;;5937559;24;20291;-86
2023/05/11 12:16:24;;;;;;;2.83;2.30;;;20.00;37.30;;;;;;5916516;24;20180;-85
2023/05/11 12:19:19;;;;;;;4.05;2.30;;;20.00;36.60;;;;;;5930925;24;20155;-85
2023/05/11 12:22:19;;;;;;;;;;;;;;;;;;;;;
2023/05/11 12:24:45;;;;;;;2.50;2.28;;;20.00;36.70;;;;;;5927219;24;20235;-85
2023/05/11 12:27:16;;;;;;;2.38;2.10;;;20.00;36.70;;;;;;5907217;24;20153;-85
2023/05/11 12:29:51;;;;;;;2.70;2.17;;;20.00;36.60;;;;;;5843477;24;20232;-83
2023/05/11 12:32:31;;;;;;;5.47;2.33;;;20.00;36.40;;;;;;5886496;24;20247;-83
2023/05/11 12:35:03;;;;;;;3.17;2.30;;;20.10;36.40;;;;;;5931539;24;20208;-83
2023/05/11 12:37:33;;;;;;;2.70;2.30;;;20.10;36.30;;;;;;6027259;23;20142;-83
2023/05/11 12:40:01;;;;;;;4.80;2.45;;;20.10;36.30;;;;;;6014616;23;20497;-83
2023/05/11 12:42:29;;;;;;;4.50;2.17;;;20.00;36.20;;;;;;6018993;23;20391;-84
2023/05/11 12:44:58;;;;;;;3.70;2.22;;;20.00;36.10;;;;;;6019840;23;20158;-84
2023/05/11 12:47:27;;;;;;;7.28;2.30;;;20.00;36.20;;;;;;6019500;23;20216;-84
2023/05/11 12:50:26;;;;;;;4.90;2.15;;;20.00;36.20;;;;;;6038794;23;20163;-84
2023/05/11 12:56:57;;;;;;;5.35;2.10;;;20.10;36.10;;;;;;6137276;23;20163;-84
2023/05/11 13:00:20;;;;;;;11.88;2.55;;;20.00;36.00;;;;;;6136188;23;20211;-84
2023/05/11 13:03:25;;;;;;;4.57;2.35;;;20.00;36.00;;;;;;5991239;24;20159;-85
2023/05/11 13:06:09;;;;;;;3.55;2.35;;;20.10;35.90;;;;;;5961148;24;20156;-83
2023/05/11 13:08:50;;;;;;;5.57;2.40;;;20.10;35.80;;;;;;5940292;24;20188;-83
2023/05/11 13:12:12;;;;;;;6.63;2.53;;;20.10;35.80;;;;;;5905705;24;20161;-84
2023/05/11 13:14:45;;;;;;;6.72;2.63;;;20.10;35.40;;;;;;5879097;24;20173;-84
2023/05/11 13:17:32;;;;;;;8.15;2.65;;;20.10;35.50;;;;;;5835432;24;20168;-84
2023/05/11 13:20:30;;;;;;;11.38;2.63;;;20.00;35.60;;;;;;5876118;24;20166;-83
2023/05/11 13:23:23;;;;;;;8.50;2.40;;;20.10;35.20;;;;;;5855859;24;20350;-84
2023/05/11 13:26:15;;;;;;;9.10;2.80;;;20.10;35.20;;;;;;5849113;24;20166;-84
2023/05/11 13:28:45;;;;;;;4.38;2.25;;;20.00;35.10;;;;;;5817303;24;20212;-84
2023/05/11 13:34:39;;;;;;;4.38;2.28;;;20.10;34.70;;;;;;5733818;24;20234;-84
2023/05/11 13:37:10;;;;;;;6.95;2.30;;;20.00;34.70;;;;;;5822808;24;20160;-84